Time;durP1;ratioP1;P1;durP2;ratioP2;P2;SDS_P1;SDS_P2;PMS_P1;PMS_P2;Temp;Humidity;BMP_temperature;BMP_pressure;BME280_temperature;BME280_humidity;BME280_pressure;Samples;Min_cycle;Max_cycle;Signal;HPM_P1;HPM_P2
2022/04/06 00:01:23;;;;;;;6.75;5.97;;;10.70;99.90;;;;;;5121171;22;20567;-51
2022/04/06 00:03:48;;;;;;;7.28;6.38;;;10.60;99.90;;;;;;5093400;28;20059;-47
2022/04/06 00:06:14;;;;;;;6.97;6.28;;;10.70;99.90;;;;;;5111787;28;20023;-48
2022/04/06 00:08:39;;;;;;;6.97;6.28;;;10.70;99.90;;;;;;5111323;28;20023;-49
2022/04/06 00:11:05;;;;;;;8.13;7.32;;;10.70;99.90;;;;;;5111595;28;20050;-47
2022/04/06 00:13:31;;;;;;;7.93;7.00;;;10.70;99.90;;;;;;5111565;28;20047;-47
2022/04/06 00:15:56;;;;;;;8.65;7.75;;;10.70;99.90;;;;;;5111293;28;20051;-46
2022/04/06 00:18:22;;;;;;;8.93;7.00;;;10.60;99.90;;;;;;5111404;28;20466;-49
2022/04/06 00:20:47;;;;;;;8.07;6.85;;;10.60;99.90;;;;;;5093285;28;20566;-48
2022/04/06 00:23:14;;;;;;;7.78;6.95;;;10.70;99.90;;;;;;5111569;28;20098;-47
2022/04/06 00:25:39;;;;;;;7.43;6.72;;;10.70;99.90;;;;;;5111570;28;20046;-47
2022/04/06 00:28:05;;;;;;;9.05;7.65;;;10.70;99.90;;;;;;5111431;28;20024;-47
2022/04/06 00:30:31;;;;;;;8.57;7.45;;;10.70;99.90;;;;;;5111412;28;20483;-49
2022/04/06 00:32:56;;;;;;;11.63;7.97;;;10.80;99.90;;;;;;5111403;28;20027;-50
2022/04/06 00:35:28;;;;;;;8.05;7.25;;;10.70;99.90;;;;;;5111510;28;20027;-51
2022/04/06 00:37:54;;;;;;;8.98;7.55;;;10.70;99.90;;;;;;5111220;28;20023;-49
2022/04/06 00:40:20;;;;;;;8.43;7.18;;;10.60;99.90;;;;;;5111368;28;20153;-47
2022/04/06 00:42:46;;;;;;;8.55;7.68;;;10.60;99.90;;;;;;5111412;28;20022;-48
2022/04/06 00:45:12;;;;;;;10.00;7.57;;;10.60;99.90;;;;;;5115173;28;20035;-47
2022/04/06 00:47:38;;;;;;;9.32;8.18;;;10.60;99.90;;;;;;5114818;28;20069;-49
2022/04/06 00:50:04;;;;;;;9.85;7.82;;;10.60;99.90;;;;;;5096782;28;20390;-48
2022/04/06 00:52:30;;;;;;;8.45;7.38;;;10.60;99.90;;;;;;5115241;28;20047;-47
2022/04/06 00:54:57;;;;;;;9.43;8.07;;;10.70;99.90;;;;;;5115125;28;20051;-46
2022/04/06 00:57:24;;;;;;;9.15;8.18;;;10.60;99.90;;;;;;5114727;28;20053;-50
2022/04/06 00:59:50;;;;;;;9.98;8.98;;;10.60;99.90;;;;;;5096724;28;20036;-49
2022/04/06 01:02:16;;;;;;;10.23;8.95;;;10.60;99.90;;;;;;5114573;28;20118;-49
2022/04/06 01:04:42;;;;;;;11.85;9.90;;;10.60;99.90;;;;;;5114832;28;20031;-51
2022/04/06 01:07:08;;;;;;;11.13;9.25;;;10.60;99.90;;;;;;5114554;28;20027;-47
2022/04/06 01:09:33;;;;;;;10.40;9.27;;;10.60;99.90;;;;;;5114732;28;20091;-47
2022/04/06 01:11:59;;;;;;;11.02;9.60;;;10.60;99.90;;;;;;5114591;28;20372;-49
2022/04/06 01:14:25;;;;;;;10.07;8.57;;;10.60;99.90;;;;;;5114324;28;20103;-50
2022/04/06 01:17:06;;;;;;;14.43;9.82;;;10.60;99.90;;;;;;5114224;28;20522;-50
2022/04/06 01:19:44;;;;;;;11.48;9.50;;;10.60;99.90;;;;;;5114590;28;20120;-49
2022/04/06 01:22:14;;;;;;;11.55;10.23;;;10.60;99.90;;;;;;5114522;28;20103;-53
2022/04/06 01:24:42;;;;;;;14.05;10.45;;;10.60;99.90;;;;;;5114336;28;20027;-51
2022/04/06 01:27:08;;;;;;;13.15;10.07;;;10.60;99.90;;;;;;5114153;28;20096;-51
2022/04/06 01:29:34;;;;;;;12.73;10.43;;;10.60;99.90;;;;;;5114242;28;20106;-48
2022/04/06 01:32:15;;;;;;;11.32;10.00;;;10.50;99.90;;;;;;5114196;28;20112;-48
2022/04/06 01:35:06;;;;;;;12.18;10.13;;;10.50;99.90;;;;;;5114147;28;20077;-48
2022/04/06 01:37:32;;;;;;;11.18;9.07;;;10.50;99.90;;;;;;5111914;28;20028;-48
2022/04/06 01:39:58;;;;;;;10.27;9.13;;;10.50;99.90;;;;;;5114093;28;20111;-48
2022/04/06 01:42:23;;;;;;;12.02;10.00;;;10.50;99.90;;;;;;5113939;28;20059;-48
2022/04/06 01:44:50;;;;;;;11.50;9.93;;;10.50;99.90;;;;;;5113809;28;20028;-48
2022/04/06 01:47:18;;;;;;;15.45;10.20;;;10.50;99.90;;;;;;5113625;28;20110;-48
2022/04/06 01:52:28;;;;;;;13.23;10.67;;;10.50;99.90;;;;;;5114162;28;20034;-47
2022/04/06 01:55:14;;;;;;;11.52;10.30;;;10.60;99.90;;;;;;5094430;28;20020;-49
2022/04/06 01:57:41;;;;;;;14.95;11.00;;;10.50;99.90;;;;;;5113850;28;20023;-47
2022/04/06 02:00:10;;;;;;;13.45;10.45;;;10.50;99.90;;;;;;5113709;28;20031;-47
2022/04/06 02:02:37;;;;;;;11.38;10.18;;;10.50;99.90;;;;;;5113432;28;20031;-47
2022/04/06 02:05:03;;;;;;;12.18;10.57;;;10.60;99.90;;;;;;5095223;28;20034;-50
2022/04/06 02:07:29;;;;;;;11.85;10.02;;;10.60;99.90;;;;;;5113609;28;20111;-47
2022/04/06 02:09:58;;;;;;;12.50;9.70;;;10.50;99.90;;;;;;5113435;28;20024;-46
2022/04/06 02:12:24;;;;;;;10.73;9.57;;;10.40;99.90;;;;;;5113471;28;20148;-47
2022/04/06 02:14:50;;;;;;;11.93;10.18;;;10.50;99.90;;;;;;5113091;28;20542;-45
2022/04/06 02:17:16;;;;;;;11.93;9.85;;;10.40;99.90;;;;;;5113154;28;20379;-47
2022/04/06 02:19:41;;;;;;;12.18;10.02;;;10.40;99.90;;;;;;5113332;28;20088;-48
2022/04/06 02:22:07;;;;;;;12.55;10.85;;;10.40;99.90;;;;;;5113158;28;20482;-47
2022/04/06 02:24:34;;;;;;;11.68;10.27;;;10.40;99.90;;;;;;5112958;28;20062;-48
2022/04/06 02:26:59;;;;;;;13.95;11.27;;;10.50;99.90;;;;;;5112697;28;20042;-47
2022/04/06 02:29:26;;;;;;;11.57;10.38;;;10.50;99.90;;;;;;5113002;28;20032;-48
2022/04/06 02:31:52;;;;;;;12.10;10.10;;;10.50;99.90;;;;;;5113169;28;20486;-46
2022/04/06 02:34:18;;;;;;;12.35;10.73;;;10.50;99.90;;;;;;5112956;28;20035;-47
2022/04/06 02:36:44;;;;;;;12.07;10.82;;;10.50;99.90;;;;;;5112964;28;20650;-48
2022/04/06 02:39:10;;;;;;;13.20;10.88;;;10.40;99.90;;;;;;5112752;28;20063;-48
2022/04/06 02:41:35;;;;;;;12.80;10.73;;;10.40;99.90;;;;;;5112772;28;20391;-46
2022/04/06 02:44:01;;;;;;;12.95;10.73;;;10.50;99.90;;;;;;5112694;28;20042;-46
2022/04/06 02:46:26;;;;;;;12.80;10.95;;;10.40;99.90;;;;;;5112848;28;20076;-48
2022/04/06 02:48:52;;;;;;;14.13;11.32;;;10.40;99.90;;;;;;5112265;28;20024;-47
2022/04/06 02:51:17;;;;;;;15.57;11.23;;;10.40;99.90;;;;;;5112609;28;20051;-49
2022/04/06 02:53:43;;;;;;;13.18;11.25;;;10.50;99.90;;;;;;5112578;28;20029;-51
2022/04/06 02:56:08;;;;;;;11.73;10.50;;;10.50;99.90;;;;;;5112726;28;20531;-50
2022/04/06 02:58:34;;;;;;;12.27;10.75;;;10.50;99.90;;;;;;5112383;28;20020;-46
2022/04/06 03:00:59;;;;;;;12.15;10.77;;;10.40;99.90;;;;;;5112280;28;20034;-47
2022/04/06 03:03:25;;;;;;;13.65;11.10;;;10.40;99.90;;;;;;5112521;28;20496;-48
2022/04/06 03:05:52;;;;;;;14.50;10.88;;;10.50;99.90;;;;;;5112854;28;20539;-49
2022/04/06 03:08:17;;;;;;;11.80;10.35;;;10.50;99.90;;;;;;5112406;28;20031;-49
2022/04/06 03:10:43;;;;;;;11.60;10.38;;;10.50;99.90;;;;;;5112127;28;20079;-46
2022/04/06 03:13:09;;;;;;;15.05;10.95;;;10.50;99.90;;;;;;5112703;28;20024;-48
2022/04/06 03:15:34;;;;;;;14.82;11.05;;;10.50;99.90;;;;;;5111989;28;20367;-47
2022/04/06 03:18:00;;;;;;;11.23;10.02;;;10.50;99.90;;;;;;5111983;28;20023;-46
2022/04/06 03:20:25;;;;;;;14.43;10.82;;;10.60;99.90;;;;;;5093827;28;20429;-48
2022/04/06 03:22:51;;;;;;;11.68;9.88;;;10.60;99.90;;;;;;5112099;28;20020;-45
2022/04/06 03:25:17;;;;;;;12.68;10.88;;;10.60;99.90;;;;;;5112063;28;20098;-46
2022/04/06 03:27:42;;;;;;;12.18;10.80;;;10.60;99.90;;;;;;5111546;28;20066;-48
2022/04/06 03:30:12;;;;;;;12.25;10.27;;;10.60;99.90;;;;;;5111935;28;20036;-49
2022/04/06 03:32:38;;;;;;;14.07;10.93;;;10.60;99.90;;;;;;5112040;28;20019;-47
2022/04/06 03:35:05;;;;;;;14.05;10.63;;;10.60;99.90;;;;;;5111809;28;20410;-46
2022/04/06 03:37:31;;;;;;;13.93;10.68;;;10.60;99.90;;;;;;5111755;28;20540;-50
2022/04/06 03:39:56;;;;;;;13.35;10.52;;;10.60;99.90;;;;;;5112009;28;20027;-46
2022/04/06 03:42:22;;;;;;;17.50;11.02;;;10.70;99.90;;;;;;5111878;28;20073;-47
2022/04/06 03:44:47;;;;;;;14.40;10.95;;;10.70;99.90;;;;;;5111727;28;20072;-47
2022/04/06 03:47:13;;;;;;;13.50;10.57;;;10.70;99.90;;;;;;5111590;28;20060;-47
2022/04/06 03:49:38;;;;;;;13.88;10.23;;;10.60;99.90;;;;;;5093617;28;20434;-47
2022/04/06 03:52:04;;;;;;;11.02;9.73;;;10.70;99.90;;;;;;5111934;28;20028;-47
2022/04/06 03:54:29;;;;;;;11.00;9.60;;;10.70;99.90;;;;;;5111745;28;20024;-47
2022/04/06 03:56:55;;;;;;;12.70;10.30;;;10.70;99.90;;;;;;5111617;28;20043;-47
2022/04/06 03:59:21;;;;;;;12.55;11.15;;;10.70;99.90;;;;;;5111887;28;20486;-46
2022/04/06 04:01:46;;;;;;;12.45;10.90;;;10.70;99.90;;;;;;5111936;28;20115;-49
2022/04/06 04:04:12;;;;;;;12.98;11.35;;;10.70;99.90;;;;;;5113547;28;20402;-45
2022/04/06 04:06:37;;;;;;;14.20;11.07;;;10.70;99.90;;;;;;5111689;28;20386;-47
2022/04/06 04:09:03;;;;;;;12.38;11.02;;;10.80;99.90;;;;;;5111748;28;20023;-45
2022/04/06 04:11:30;;;;;;;14.90;12.00;;;10.80;99.90;;;;;;5111791;28;20414;-45
2022/04/06 04:13:55;;;;;;;13.30;11.32;;;10.80;99.90;;;;;;5111809;28;20475;-45
2022/04/06 04:16:21;;;;;;;15.27;11.27;;;10.90;99.90;;;;;;5111353;28;20072;-47
2022/04/06 04:18:47;;;;;;;15.10;10.70;;;10.80;99.90;;;;;;5113155;28;20028;-45
2022/04/06 04:23:57;;;;;;;14.40;9.95;;;10.80;99.90;;;;;;5116067;28;20050;-46
2022/04/06 04:26:22;;;;;;;13.23;10.00;;;10.80;99.90;;;;;;5115698;28;20487;-45
2022/04/06 04:28:48;;;;;;;17.00;11.73;;;10.80;99.90;;;;;;5115215;28;20024;-45
2022/04/06 04:31:13;;;;;;;14.00;10.77;;;10.80;99.90;;;;;;5115586;28;20023;-45
2022/04/06 04:33:39;;;;;;;13.40;10.88;;;10.80;99.90;;;;;;5115411;28;20038;-45
2022/04/06 04:36:05;;;;;;;16.67;12.30;;;10.70;99.90;;;;;;5115499;28;20046;-44
2022/04/06 04:38:30;;;;;;;14.00;11.07;;;10.70;99.90;;;;;;5115059;28;20023;-45
2022/04/06 04:40:57;;;;;;;16.17;12.85;;;10.70;99.90;;;;;;5115155;28;20020;-47
2022/04/06 04:43:22;;;;;;;16.50;11.38;;;10.70;99.90;;;;;;5114945;28;20032;-44
2022/04/06 04:45:48;;;;;;;16.02;12.32;;;10.70;99.90;;;;;;5115112;28;20046;-43
2022/04/06 04:48:14;;;;;;;17.10;12.60;;;10.70;99.90;;;;;;5114794;28;20038;-46
2022/04/06 04:50:40;;;;;;;18.10;12.00;;;10.70;99.90;;;;;;5114889;28;20035;-45
2022/04/06 04:53:06;;;;;;;15.38;12.18;;;10.80;99.90;;;;;;5114997;28;20490;-47
2022/04/06 04:55:32;;;;;;;14.98;12.48;;;10.70;99.90;;;;;;5115088;28;20221;-46
2022/04/06 04:57:58;;;;;;;16.10;11.20;;;10.70;99.90;;;;;;5114451;28;20028;-46
2022/04/06 05:00:23;;;;;;;16.55;11.88;;;10.70;99.90;;;;;;5114804;28;20535;-46
2022/04/06 05:02:49;;;;;;;16.65;12.68;;;10.70;99.90;;;;;;5114760;28;20380;-46
2022/04/06 05:05:14;;;;;;;15.80;11.77;;;10.70;99.90;;;;;;5096537;28;20028;-46
2022/04/06 05:07:40;;;;;;;13.70;11.10;;;10.70;99.90;;;;;;5114642;28;20106;-48
2022/04/06 05:10:10;;;;;;;14.75;11.90;;;10.60;99.90;;;;;;5096281;28;20098;-45
2022/04/06 05:12:36;;;;;;;15.45;10.80;;;10.60;99.90;;;;;;5114500;28;20031;-45
2022/04/06 05:15:02;;;;;;;15.02;11.65;;;10.70;99.90;;;;;;5113960;28;20024;-48
2022/04/06 05:17:28;;;;;;;15.05;11.93;;;10.70;99.90;;;;;;5114199;28;20033;-47
2022/04/06 05:19:54;;;;;;;14.13;11.63;;;10.70;99.90;;;;;;5114451;28;20492;-46
2022/04/06 05:22:20;;;;;;;21.73;13.05;;;10.70;99.90;;;;;;5114678;28;20039;-46
2022/04/06 05:24:46;;;;;;;15.15;11.82;;;10.70;99.90;;;;;;5114226;28;20028;-45
2022/04/06 05:27:11;;;;;;;19.17;12.50;;;10.80;99.90;;;;;;5114070;28;20028;-45
2022/04/06 05:29:37;;;;;;;15.65;12.27;;;10.80;99.90;;;;;;5114387;28;20047;-46
2022/04/06 05:32:03;;;;;;;13.90;11.48;;;10.70;99.90;;;;;;5114462;28;20051;-44
2022/04/06 05:34:29;;;;;;;15.88;11.38;;;10.80;99.90;;;;;;5114244;28;20023;-45
2022/04/06 05:36:55;;;;;;;14.63;12.15;;;10.80;99.90;;;;;;5114202;28;20479;-49
2022/04/06 05:39:21;;;;;;;16.85;12.07;;;10.70;99.90;;;;;;5114158;28;20028;-46
2022/04/06 05:41:48;;;;;;;14.52;11.07;;;10.70;99.90;;;;;;5114330;28;20024;-46
2022/04/06 05:44:14;;;;;;;13.75;11.30;;;10.60;99.90;;;;;;5095752;28;20027;-46
2022/04/06 05:46:39;;;;;;;16.45;12.23;;;10.60;99.90;;;;;;5114370;28;20444;-45
2022/04/06 05:49:05;;;;;;;15.75;11.20;;;10.70;99.90;;;;;;5113903;28;20146;-48
2022/04/06 05:51:30;;;;;;;14.18;10.55;;;10.70;99.90;;;;;;5114054;28;20051;-46
2022/04/06 05:53:56;;;;;;;20.77;10.93;;;10.70;99.90;;;;;;5113723;28;20031;-49
2022/04/06 05:56:21;;;;;;;13.10;8.65;;;10.70;99.90;;;;;;5113918;28;20036;-50
2022/04/06 05:58:47;;;;;;;15.75;7.55;;;10.70;99.90;;;;;;5113380;28;20102;-47
2022/04/06 06:01:12;;;;;;;10.40;7.35;;;10.70;99.90;;;;;;5113328;28;20448;-46
2022/04/06 06:03:38;;;;;;;9.70;6.72;;;10.80;99.90;;;;;;5134794;22;20062;-44
2022/04/06 06:06:04;;;;;;;15.88;7.10;;;10.80;99.90;;;;;;5113882;28;20023;-45
2022/04/06 06:08:29;;;;;;;12.65;6.20;;;10.90;99.90;;;;;;5113342;28;20364;-49
2022/04/06 06:10:55;;;;;;;12.68;6.10;;;11.00;99.90;;;;;;5113549;28;20145;-44
2022/04/06 06:13:22;;;;;;;11.45;4.80;;;11.00;99.90;;;;;;5113719;28;20055;-41
2022/04/06 06:15:48;;;;;;;7.10;4.85;;;11.00;99.90;;;;;;5113392;28;20102;-48
2022/04/06 06:18:14;;;;;;;7.03;4.70;;;11.10;99.90;;;;;;5113096;28;20461;-51
2022/04/06 06:20:39;;;;;;;13.80;5.35;;;11.10;99.90;;;;;;5113354;28;20034;-45
2022/04/06 06:23:05;;;;;;;12.43;4.78;;;11.00;99.90;;;;;;5113143;28;20024;-42
2022/04/06 06:25:30;;;;;;;9.00;4.45;;;11.00;99.90;;;;;;5113312;28;20039;-44
2022/04/06 06:27:56;;;;;;;9.90;5.28;;;11.00;99.90;;;;;;5112866;28;20023;-43
2022/04/06 06:30:21;;;;;;;13.18;4.97;;;11.00;99.90;;;;;;5113235;28;20530;-43
2022/04/06 06:32:47;;;;;;;8.93;4.32;;;11.10;99.90;;;;;;5113741;28;20020;-46
2022/04/06 06:35:13;;;;;;;9.27;4.25;;;11.10;99.90;;;;;;5113352;28;20386;-50
2022/04/06 06:37:50;;;;;;;10.27;4.22;;;11.10;99.90;;;;;;5112879;28;20390;-45
2022/04/06 06:40:17;;;;;;;15.88;4.35;;;11.10;99.90;;;;;;5113137;28;20049;-46
2022/04/06 06:42:43;;;;;;;8.23;4.45;;;11.20;99.90;;;;;;5113382;28;20046;-48
2022/04/06 06:45:09;;;;;;;11.82;4.65;;;11.10;99.90;;;;;;5094733;28;20020;-46
2022/04/06 06:47:34;;;;;;;14.95;4.68;;;11.10;99.90;;;;;;5112646;28;20058;-47
2022/04/06 06:50:00;;;;;;;13.30;4.38;;;11.20;99.90;;;;;;5112835;28;20102;-45
2022/04/06 06:52:25;;;;;;;12.25;5.18;;;11.30;99.90;;;;;;5112773;28;20073;-46
2022/04/06 06:54:51;;;;;;;8.05;3.75;;;11.40;99.90;;;;;;5112849;28;20023;-47
2022/04/06 06:57:16;;;;;;;10.25;4.80;;;11.60;99.90;;;;;;5112502;28;20055;-48
2022/04/06 06:59:42;;;;;;;12.77;4.13;;;11.70;99.90;;;;;;5112630;28;20028;-45
2022/04/06 07:02:09;;;;;;;14.23;5.18;;;11.70;99.90;;;;;;5112208;28;20051;-51
2022/04/06 07:04:34;;;;;;;10.90;4.32;;;11.70;99.90;;;;;;5112567;28;20058;-43
2022/04/06 07:07:00;;;;;;;14.25;4.70;;;11.80;99.90;;;;;;5112193;28;20065;-46
2022/04/06 07:09:25;;;;;;;15.38;4.28;;;11.70;99.90;;;;;;5112331;28;20028;-46
2022/04/06 07:11:52;;;;;;;13.88;4.45;;;11.70;99.90;;;;;;5112571;28;20484;-48
2022/04/06 07:14:18;;;;;;;10.38;4.85;;;11.80;99.90;;;;;;5111734;28;20301;-47
2022/04/06 07:16:44;;;;;;;7.75;4.05;;;11.90;99.90;;;;;;5094017;28;20107;-44
2022/04/06 07:19:09;;;;;;;10.73;4.38;;;11.90;99.90;;;;;;5112264;28;20019;-46
2022/04/06 07:21:35;;;;;;;11.25;5.10;;;11.90;99.90;;;;;;5112178;28;20031;-50
2022/04/06 07:24:03;;;;;;;13.98;4.70;;;12.00;99.90;;;;;;5112667;28;20517;-42
2022/04/06 07:26:29;;;;;;;10.02;5.13;;;12.10;99.90;;;;;;5112398;28;20444;-41
2022/04/06 07:28:54;;;;;;;15.00;4.97;;;12.30;99.90;;;;;;5111882;28;20081;-47
2022/04/06 07:31:20;;;;;;;10.57;4.90;;;12.40;99.90;;;;;;5112314;28;20023;-47
2022/04/06 07:33:45;;;;;;;8.73;4.95;;;12.90;99.90;;;;;;5111836;28;20038;-47
2022/04/06 07:36:11;;;;;;;12.32;4.90;;;13.50;99.90;;;;;;5111085;28;20103;-45
2022/04/06 07:38:37;;;;;;;12.00;5.25;;;13.70;99.90;;;;;;5111998;28;20051;-44
2022/04/06 07:41:02;;;;;;;14.68;4.90;;;13.90;99.90;;;;;;5111108;28;20153;-51
2022/04/06 07:43:28;;;;;;;13.15;5.40;;;13.90;99.90;;;;;;5111340;28;20035;-45
2022/04/06 07:45:53;;;;;;;21.40;6.43;;;13.90;99.90;;;;;;5058717;28;20571;-44
2022/04/06 07:48:19;;;;;;;17.38;6.03;;;13.70;99.90;;;;;;5048600;28;20124;-41
2022/04/06 07:50:44;;;;;;;51.08;8.40;;;13.50;99.90;;;;;;5049243;28;20063;-41
2022/04/06 07:53:11;;;;;;;9.77;5.78;;;13.20;99.90;;;;;;5047764;28;20085;-46
2022/04/06 07:55:37;;;;;;;12.32;5.05;;;12.90;99.90;;;;;;5052633;28;20058;-42
2022/04/06 07:58:02;;;;;;;9.95;4.82;;;12.80;99.90;;;;;;5049680;28;20472;-47
2022/04/06 08:00:33;;;;;;;14.32;5.80;;;12.70;99.90;;;;;;5051722;28;20481;-43
2022/04/06 08:02:59;;;;;;;11.23;5.28;;;12.70;99.90;;;;;;5051494;28;20041;-49
2022/04/06 08:05:24;;;;;;;12.45;4.90;;;12.60;99.90;;;;;;5054512;28;20082;-47
2022/04/06 08:07:53;;;;;;;12.05;4.93;;;12.50;99.90;;;;;;5056128;28;20033;-45
2022/04/06 08:10:19;;;;;;;9.05;4.28;;;12.50;99.90;;;;;;5055746;28;20043;-45
2022/04/06 08:12:46;;;;;;;10.95;4.32;;;12.60;99.90;;;;;;5050543;28;20542;-43
2022/04/06 08:15:12;;;;;;;12.23;4.10;;;12.60;99.90;;;;;;5052874;28;20078;-44
2022/04/06 08:17:40;;;;;;;10.65;3.70;;;12.70;99.90;;;;;;5052582;28;20100;-42
2022/04/06 08:20:11;;;;;;;11.95;4.18;;;12.60;99.90;;;;;;5059608;28;20036;-55
2022/04/06 08:22:38;;;;;;;13.85;4.03;;;12.60;99.90;;;;;;5050893;28;20021;-46
2022/04/06 08:25:04;;;;;;;13.70;4.68;;;12.50;99.90;;;;;;5050848;28;20024;-48
2022/04/06 08:27:31;;;;;;;12.60;4.82;;;12.40;99.90;;;;;;5052700;28;20035;-47
2022/04/06 08:29:56;;;;;;;10.13;4.00;;;12.30;99.90;;;;;;5052940;28;20526;-44
2022/04/06 08:32:22;;;;;;;10.95;5.68;;;12.30;99.90;;;;;;5038202;28;20117;-45
2022/04/06 08:34:48;;;;;;;16.33;6.05;;;12.40;99.90;;;;;;5052658;28;20082;-45
2022/04/06 08:37:13;;;;;;;15.45;5.43;;;12.40;99.90;;;;;;5051955;28;20108;-49
2022/04/06 08:39:39;;;;;;;9.10;4.18;;;12.60;99.90;;;;;;5050902;28;20037;-47
2022/04/06 08:42:04;;;;;;;9.75;4.18;;;12.50;99.90;;;;;;5051383;28;20463;-46
2022/04/06 08:44:30;;;;;;;10.30;4.45;;;12.60;99.90;;;;;;5051862;28;20484;-46
2022/04/06 08:47:04;;;;;;;8.90;4.70;;;12.60;99.90;;;;;;5051494;28;20037;-49
2022/04/06 08:49:30;;;;;;;10.52;4.47;;;12.70;99.90;;;;;;5052272;28;20524;-49
2022/04/06 08:51:56;;;;;;;8.13;4.00;;;12.70;99.90;;;;;;5050012;28;20096;-47
2022/04/06 08:54:22;;;;;;;41.53;25.92;;;12.70;99.90;;;;;;5052068;28;20029;-56
2022/04/06 08:56:48;;;;;;;6.95;3.83;;;12.70;99.90;;;;;;5052095;28;20040;-44
2022/04/06 08:59:14;;;;;;;6.85;3.70;;;12.70;99.90;;;;;;5051639;28;20029;-52
2022/04/06 09:01:40;;;;;;;8.63;3.35;;;13.20;98.50;;;;;;5050581;28;20028;-48
2022/04/06 09:04:05;;;;;;;8.10;3.47;;;13.60;98.20;;;;;;5051639;28;20044;-48
2022/04/06 09:06:42;;;;;;;10.65;3.42;;;13.60;97.90;;;;;;5051625;28;20037;-49
2022/04/06 09:09:09;;;;;;;10.52;4.22;;;13.50;97.80;;;;;;5051724;28;20086;-41
2022/04/06 09:11:44;;;;;;;8.52;3.60;;;13.30;98.00;;;;;;5050784;28;20515;-44
2022/04/06 09:14:12;;;;;;;12.68;3.50;;;13.20;97.80;;;;;;5047854;28;20036;-42
2022/04/06 09:16:38;;;;;;;12.68;4.10;;;13.20;98.30;;;;;;5048566;28;20025;-44
2022/04/06 09:19:11;;;;;;;6.63;3.22;;;13.20;98.20;;;;;;5052416;28;20021;-39
2022/04/06 09:21:42;;;;;;;5.93;3.28;;;13.10;98.40;;;;;;5046446;28;20039;-50
2022/04/06 09:24:18;;;;;;;6.70;3.50;;;13.20;98.40;;;;;;5033615;28;20108;-49
2022/04/06 09:26:54;;;;;;;15.90;4.47;;;13.40;98.20;;;;;;5052122;28;20017;-45
2022/04/06 09:29:20;;;;;;;6.55;4.22;;;13.40;98.30;;;;;;5050141;28;20032;-47
2022/04/06 09:31:48;;;;;;;5.55;3.08;;;13.40;98.40;;;;;;5051022;28;20025;-46
2022/04/06 09:34:14;;;;;;;6.75;3.67;;;13.40;98.00;;;;;;5038755;28;20021;-47
2022/04/06 09:36:39;;;;;;;7.13;3.97;;;13.30;98.30;;;;;;5051905;28;20067;-45
2022/04/06 09:39:05;;;;;;;11.93;4.15;;;13.20;98.30;;;;;;5049345;28;20412;-47
2022/04/06 09:41:32;;;;;;;12.80;4.28;;;13.20;98.50;;;;;;5049267;28;20029;-44
2022/04/06 09:47:38;;;;;;;10.35;4.13;;;13.10;99.00;;;;;;5053356;28;20021;-47
2022/04/06 09:50:23;;;;;;;8.27;4.53;;;13.10;99.10;;;;;;5053499;28;20063;-45
2022/04/06 09:52:53;;;;;;;16.90;4.35;;;13.30;99.70;;;;;;5055034;28;20037;-47
2022/04/06 09:55:20;;;;;;;13.13;4.90;;;13.40;99.60;;;;;;5053877;28;20032;-51
2022/04/06 09:57:56;;;;;;;28.52;7.68;;;13.40;99.30;;;;;;5052768;28;20412;-44
2022/04/06 10:00:28;;;;;;;9.77;4.18;;;13.70;99.00;;;;;;5053219;28;20035;-44
2022/04/06 10:03:01;;;;;;;10.48;5.43;;;13.80;98.70;;;;;;5053098;28;20044;-46
2022/04/06 10:05:29;;;;;;;13.40;6.38;;;13.80;98.50;;;;;;5053100;28;20029;-51
2022/04/06 10:07:55;;;;;;;12.27;5.20;;;13.80;98.70;;;;;;5052719;28;20033;-48
2022/04/06 10:10:23;;;;;;;12.73;5.75;;;13.70;98.80;;;;;;5053051;28;20025;-48
2022/04/06 10:12:50;;;;;;;17.92;5.68;;;13.80;99.00;;;;;;5052768;28;20029;-43
2022/04/06 10:15:17;;;;;;;11.00;5.25;;;13.90;98.60;;;;;;5052637;28;20480;-44
2022/04/06 10:17:43;;;;;;;12.70;5.45;;;13.90;98.40;;;;;;5051975;28;20107;-51
2022/04/06 10:20:11;;;;;;;11.63;4.60;;;14.10;98.40;;;;;;5052884;28;20079;-49
2022/04/06 10:22:55;;;;;;;18.27;10.80;;;14.10;98.80;;;;;;5052737;28;20409;-44
2022/04/06 10:25:26;;;;;;;48.72;22.58;;;14.50;98.60;;;;;;5052793;28;20028;-46
2022/04/06 10:27:55;;;;;;;11.77;4.80;;;14.70;98.40;;;;;;5052380;28;20086;-45
2022/04/06 10:30:23;;;;;;;8.90;4.85;;;14.80;97.70;;;;;;5052611;28;20116;-51
2022/04/06 10:32:51;;;;;;;7.82;4.93;;;14.80;97.80;;;;;;5052560;28;20024;-41
2022/04/06 10:35:30;;;;;;;9.95;5.20;;;14.60;97.30;;;;;;5052501;28;20120;-47
2022/04/06 10:37:56;;;;;;;20.85;5.57;;;14.50;97.70;;;;;;5052450;28;20397;-45
2022/04/06 10:40:22;;;;;;;13.60;5.18;;;14.60;97.60;;;;;;5030971;28;20030;-50
2022/04/06 10:42:48;;;;;;;9.32;4.60;;;14.60;97.10;;;;;;5051223;28;20075;-44
2022/04/06 10:45:29;;;;;;;9.10;4.97;;;14.60;97.90;;;;;;5052352;28;20112;-44
2022/04/06 10:48:18;;;;;;;9.55;4.72;;;14.50;97.80;;;;;;5052072;28;20688;-43
2022/04/06 10:50:48;;;;;;;11.60;5.03;;;14.40;97.60;;;;;;5052140;28;20025;-41
2022/04/06 10:53:20;;;;;;;10.95;5.05;;;14.30;98.30;;;;;;5050794;28;20024;-44
2022/04/06 10:56:17;;;;;;;9.15;5.60;;;14.30;97.70;;;;;;5051759;28;20020;-46
2022/04/06 10:58:57;;;;;;;12.02;5.50;;;14.30;97.60;;;;;;5051778;28;20362;-46
2022/04/06 11:01:38;;;;;;;12.40;5.78;;;14.10;98.10;;;;;;5051897;28;20028;-45
2022/04/06 11:04:16;;;;;;;9.65;5.30;;;14.10;99.00;;;;;;5051118;28;20551;-45
2022/04/06 11:06:48;;;;;;;9.50;5.38;;;14.20;98.90;;;;;;5051941;28;20025;-43
2022/04/06 11:12:19;;;;;;;13.05;5.35;;;14.00;98.00;;;;;;5051986;28;20032;-46
2022/04/06 11:15:05;;;;;;;12.80;5.93;;;13.90;98.60;;;;;;5051595;28;20489;-47
2022/04/06 11:17:32;;;;;;;8.13;4.60;;;14.00;98.60;;;;;;5010284;28;20412;-49
2022/04/06 11:19:58;;;;;;;7.03;3.35;;;14.00;97.70;;;;;;5051234;28;20021;-46
2022/04/06 11:22:24;;;;;;;4.30;3.45;;;14.10;96.10;;;;;;5050863;28;20032;-42
2022/04/06 11:24:50;;;;;;;6.28;3.20;;;14.30;95.80;;;;;;5035427;28;20025;-44
2022/04/06 11:27:32;;;;;;;6.13;2.90;;;14.40;95.20;;;;;;5051421;28;20025;-43
2022/04/06 11:30:06;;;;;;;4.03;2.72;;;14.40;94.60;;;;;;5051519;28;20028;-42
2022/04/06 11:32:33;;;;;;;12.45;3.75;;;14.40;94.50;;;;;;5051829;28;20024;-43
2022/04/06 11:35:05;;;;;;;8.82;5.03;;;14.40;93.80;;;;;;5051542;28;20049;-39
2022/04/06 11:37:38;;;;;;;15.10;4.35;;;14.30;93.60;;;;;;5050589;28;20025;-46
2022/04/06 11:40:04;;;;;;;7.90;2.78;;;14.30;93.70;;;;;;5051495;28;20215;-51
2022/04/06 11:42:29;;;;;;;4.85;2.55;;;14.40;93.70;;;;;;5051197;28;20067;-46
2022/04/06 11:44:56;;;;;;;7.00;2.50;;;14.60;93.40;;;;;;5051304;28;20033;-40
2022/04/06 11:47:32;;;;;;;6.28;2.38;;;14.60;92.80;;;;;;5051038;28;20029;-43
2022/04/06 11:49:58;;;;;;;6.30;3.25;;;14.50;92.80;;;;;;5051168;28;20090;-50
2022/04/06 11:52:24;;;;;;;7.47;2.75;;;14.50;93.40;;;;;;5051232;28;20025;-43
2022/04/06 11:54:52;;;;;;;4.95;2.55;;;14.60;93.40;;;;;;5051116;28;20523;-41
2022/04/06 11:57:18;;;;;;;9.75;2.60;;;14.60;93.50;;;;;;5050661;28;20017;-45
2022/04/06 11:59:56;;;;;;;5.10;2.35;;;14.80;92.80;;;;;;5050913;28;20462;-44
2022/04/06 12:02:22;;;;;;;4.50;2.63;;;14.80;92.50;;;;;;5050787;28;20083;-41
2022/04/06 12:05:04;;;;;;;4.88;2.38;;;14.80;93.00;;;;;;5072892;23;20062;-45
2022/04/06 12:07:30;;;;;;;7.13;2.50;;;14.90;93.10;;;;;;5057766;28;20024;-42
2022/04/06 12:09:56;;;;;;;8.35;2.90;;;14.80;93.40;;;;;;5050040;28;20025;-44
2022/04/06 12:12:23;;;;;;;4.97;2.53;;;15.00;93.50;;;;;;5050199;28;20028;-45
2022/04/06 12:14:52;;;;;;;5.65;2.05;;;14.90;92.90;;;;;;5041077;28;20385;-45
2022/04/06 12:17:19;;;;;;;9.25;2.80;;;14.80;93.80;;;;;;5046059;28;20489;-46
2022/04/06 12:19:44;;;;;;;6.75;1.95;;;14.90;93.30;;;;;;5051448;28;20044;-41
2022/04/06 12:22:11;;;;;;;14.10;2.50;;;14.90;93.70;;;;;;5032418;28;20021;-45
2022/04/06 12:24:43;;;;;;;8.98;2.67;;;15.00;92.80;;;;;;5029700;28;20029;-42
2022/04/06 12:27:27;;;;;;;9.23;2.42;;;14.80;92.80;;;;;;5026406;28;20021;-50
2022/04/06 12:30:08;;;;;;;7.05;2.83;;;14.60;93.40;;;;;;5028566;28;20488;-49
2022/04/06 12:32:44;;;;;;;8.45;2.53;;;14.60;93.40;;;;;;5027569;28;20116;-49
2022/04/06 12:35:15;;;;;;;;;;;14.60;93.70;;;;;;5029969;28;20029;-57
2022/04/06 12:37:41;;;;;;;20.58;12.80;;;14.70;93.60;;;;;;5028092;28;20003;-48
2022/04/06 12:40:08;;;;;;;58.50;25.90;;;14.70;93.20;;;;;;5031908;28;20104;-49
2022/04/06 12:42:37;;;;;;;8.45;2.30;;;14.60;92.50;;;;;;5029885;28;20079;-47
2022/04/06 12:45:06;;;;;;;4.22;2.05;;;14.60;92.50;;;;;;5033146;28;20055;-48
2022/04/06 12:47:31;;;;;;;7.10;2.55;;;14.60;92.30;;;;;;5033040;28;20078;-48
2022/04/06 12:50:19;;;;;;;6.15;2.67;;;14.80;92.10;;;;;;5034481;28;20033;-53